sensor_id;sensor_type;location;lat;lon;timestamp;pressure;altitude;pressure_sealevel;temperature;humidity
10978;BME280;5542;48.272;10.794;2022-08-19T00:01:15;95249.41;;;19.71;84.29
10978;BME280;5542;48.272;10.794;2022-08-19T00:03:42;95262.25;;;19.69;84.26
10978;BME280;5542;48.272;10.794;2022-08-19T00:06:09;95267.31;;;19.71;83.64
10978;BME280;5542;48.272;10.794;2022-08-19T00:08:35;95264.63;;;19.71;83.97
10978;BME280;5542;48.272;10.794;2022-08-19T00:11:03;95262.25;;;19.69;84.47
10978;BME280;5542;48.272;10.794;2022-08-19T00:13:29;95262.06;;;19.65;84.67
10978;BME280;5542;48.272;10.794;2022-08-19T00:15:56;95259.97;;;19.62;85.23
10978;BME280;5542;48.272;10.794;2022-08-19T00:18:25;95267.75;;;19.59;85.58
10978;BME280;5542;48.272;10.794;2022-08-19T00:20:51;95255.22;;;19.73;84.65
10978;BME280;5542;48.272;10.794;2022-08-19T00:23:18;95264.44;;;19.67;84.00
10978;BME280;5542;48.272;10.794;2022-08-19T00:25:45;95254.41;;;19.59;84.97
10978;BME280;5542;48.272;10.794;2022-08-19T00:28:12;95264.22;;;19.63;84.82
10978;BME280;5542;48.272;10.794;2022-08-19T00:30:38;95266.97;;;19.58;85.09
10978;BME280;5542;48.272;10.794;2022-08-19T00:33:06;95259.34;;;19.52;85.67
10978;BME280;5542;48.272;10.794;2022-08-19T00:35:34;95264.97;;;19.50;85.88
10978;BME280;5542;48.272;10.794;2022-08-19T00:38:03;95261.81;;;19.48;86.03
10978;BME280;5542;48.272;10.794;2022-08-19T00:40:31;95271.69;;;19.48;86.37
10978;BME280;5542;48.272;10.794;2022-08-19T00:42:58;95260.72;;;19.49;86.52
10978;BME280;5542;48.272;10.794;2022-08-19T00:45:27;95244.63;;;19.54;86.60
10978;BME280;5542;48.272;10.794;2022-08-19T00:47:57;95242.94;;;19.58;86.53
10978;BME280;5542;48.272;10.794;2022-08-19T00:50:24;95245.34;;;19.60;86.32
10978;BME280;5542;48.272;10.794;2022-08-19T00:52:52;95240.78;;;19.60;85.99
10978;BME280;5542;48.272;10.794;2022-08-19T00:55:22;95236.75;;;19.63;86.12
10978;BME280;5542;48.272;10.794;2022-08-19T00:57:52;95243.09;;;19.67;85.54
10978;BME280;5542;48.272;10.794;2022-08-19T01:00:21;95239.31;;;19.68;85.34
10978;BME280;5542;48.272;10.794;2022-08-19T01:02:49;95241.19;;;19.67;85.41
10978;BME280;5542;48.272;10.794;2022-08-19T01:05:18;95239.13;;;19.64;85.08
10978;BME280;5542;48.272;10.794;2022-08-19T01:07:47;95248.22;;;19.63;85.52
10978;BME280;5542;48.272;10.794;2022-08-19T01:10:18;95250.41;;;19.61;85.48
10978;BME280;5542;48.272;10.794;2022-08-19T01:12:46;95258.41;;;19.61;85.74
10978;BME280;5542;48.272;10.794;2022-08-19T01:15:16;95254.53;;;19.67;85.20
10978;BME280;5542;48.272;10.794;2022-08-19T01:17:44;95257.63;;;19.61;85.23
10978;BME280;5542;48.272;10.794;2022-08-19T01:20:15;95257.38;;;19.57;85.60
10978;BME280;5542;48.272;10.794;2022-08-19T01:22:45;95257.31;;;19.62;85.21
10978;BME280;5542;48.272;10.794;2022-08-19T01:25:13;95254.41;;;19.59;85.90
10978;BME280;5542;48.272;10.794;2022-08-19T01:27:42;95264.22;;;19.63;85.51
10978;BME280;5542;48.272;10.794;2022-08-19T01:30:12;95254.41;;;19.59;85.81
10978;BME280;5542;48.272;10.794;2022-08-19T01:32:39;95258.94;;;19.58;85.55
10978;BME280;5542;48.272;10.794;2022-08-19T01:35:06;95254.72;;;19.57;85.45
10978;BME280;5542;48.272;10.794;2022-08-19T01:37:47;95254.59;;;19.49;86.01
10978;BME280;5542;48.272;10.794;2022-08-19T01:40:14;95255.09;;;19.51;85.62
10978;BME280;5542;48.272;10.794;2022-08-19T01:42:41;95262.03;;;19.52;85.35
10978;BME280;5542;48.272;10.794;2022-08-19T01:45:08;95249.94;;;19.40;85.79
10978;BME280;5542;48.272;10.794;2022-08-19T01:47:35;95252.13;;;19.38;85.69
10978;BME280;5542;48.272;10.794;2022-08-19T01:50:03;95249.16;;;19.40;85.12
10978;BME280;5542;48.272;10.794;2022-08-19T01:52:31;95240.38;;;19.39;85.66
10978;BME280;5542;48.272;10.794;2022-08-19T01:54:59;95249.16;;;19.40;85.38
10978;BME280;5542;48.272;10.794;2022-08-19T01:57:26;95249.75;;;19.37;86.13
10978;BME280;5542;48.272;10.794;2022-08-19T01:59:53;95265.16;;;19.40;86.24
10978;BME280;5542;48.272;10.794;2022-08-19T02:02:19;95267.34;;;19.38;86.34
10978;BME280;5542;48.272;10.794;2022-08-19T02:04:46;95265.16;;;19.40;85.93
10978;BME280;5542;48.272;10.794;2022-08-19T02:07:13;95274.75;;;19.41;85.89
10978;BME280;5542;48.272;10.794;2022-08-19T02:09:39;95277.91;;;19.43;85.27
10978;BME280;5542;48.272;10.794;2022-08-19T02:12:07;95272.59;;;19.43;85.18
10978;BME280;5542;48.272;10.794;2022-08-19T02:14:34;95273.38;;;19.43;85.37
10978;BME280;5542;48.272;10.794;2022-08-19T02:17:01;95271.00;;;19.42;85.41
10978;BME280;5542;48.272;10.794;2022-08-19T02:19:28;95265.16;;;19.40;85.38
10978;BME280;5542;48.272;10.794;2022-08-19T02:21:57;95261.72;;;19.39;85.33
10978;BME280;5542;48.272;10.794;2022-08-19T02:24:23;95261.41;;;19.41;85.04
10978;BME280;5542;48.272;10.794;2022-08-19T02:26:50;95259.81;;;19.40;85.32
10978;BME280;5542;48.272;10.794;2022-08-19T02:29:19;95264.16;;;19.36;85.41
10978;BME280;5542;48.272;10.794;2022-08-19T02:31:46;95262.19;;;19.28;85.74
10978;BME280;5542;48.272;10.794;2022-08-19T02:34:13;95258.81;;;19.22;85.76
10978;BME280;5542;48.272;10.794;2022-08-19T02:36:39;95266.63;;;19.18;86.40
10978;BME280;5542;48.272;10.794;2022-08-19T02:39:06;95260.41;;;19.23;86.03
10978;BME280;5542;48.272;10.794;2022-08-19T02:41:33;95264.66;;;19.24;86.24
10978;BME280;5542;48.272;10.794;2022-08-19T02:44:02;95263.25;;;19.27;85.90
10978;BME280;5542;48.272;10.794;2022-08-19T02:46:32;95264.78;;;19.33;85.10
10978;BME280;5542;48.272;10.794;2022-08-19T02:49:00;95268.09;;;19.25;85.62
10978;BME280;5542;48.272;10.794;2022-08-19T02:51:30;95254.28;;;19.23;86.20
10978;BME280;5542;48.272;10.794;2022-08-19T02:53:57;95260.69;;;19.22;86.30
10978;BME280;5542;48.272;10.794;2022-08-19T02:56:24;95260.22;;;19.19;86.19
10978;BME280;5542;48.272;10.794;2022-08-19T02:58:53;95262.66;;;19.16;86.38
10978;BME280;5542;48.272;10.794;2022-08-19T03:01:21;95256.31;;;19.12;86.73
10978;BME280;5542;48.272;10.794;2022-08-19T03:03:50;95258.41;;;19.15;87.04
10978;BME280;5542;48.272;10.794;2022-08-19T03:06:17;95254.66;;;19.16;86.87
10978;BME280;5542;48.272;10.794;2022-08-19T03:08:46;95256.44;;;19.21;87.19
10978;BME280;5542;48.272;10.794;2022-08-19T03:11:14;95244.13;;;19.25;86.74
10978;BME280;5542;48.272;10.794;2022-08-19T03:13:40;95237.69;;;19.26;86.76
10978;BME280;5542;48.272;10.794;2022-08-19T03:16:09;95230.47;;;19.26;86.54
10978;BME280;5542;48.272;10.794;2022-08-19T03:18:35;95218.34;;;19.34;85.98
10978;BME280;5542;48.272;10.794;2022-08-19T03:21:04;95227.94;;;19.35;85.47
10978;BME280;5542;48.272;10.794;2022-08-19T03:23:31;95227.63;;;19.36;85.36
10978;BME280;5542;48.272;10.794;2022-08-19T03:25:57;95235.63;;;19.36;85.18
10978;BME280;5542;48.272;10.794;2022-08-19T03:28:24;95244.22;;;19.33;85.15
10978;BME280;5542;48.272;10.794;2022-08-19T03:30:56;95251.34;;;19.38;84.65
10978;BME280;5542;48.272;10.794;2022-08-19T03:33:24;95255.00;;;19.42;84.22
10978;BME280;5542;48.272;10.794;2022-08-19T03:36:17;95257.47;;;19.38;84.26
10978;BME280;5542;48.272;10.794;2022-08-19T03:38:47;95263.38;;;19.35;84.62
10978;BME280;5542;48.272;10.794;2022-08-19T03:41:15;95268.91;;;19.39;84.32
10978;BME280;5542;48.272;10.794;2022-08-19T03:43:43;95262.50;;;19.40;84.42
10978;BME280;5542;48.272;10.794;2022-08-19T03:46:14;95267.34;;;19.38;84.70
10978;BME280;5542;48.272;10.794;2022-08-19T03:48:43;95272.69;;;19.38;84.82
10978;BME280;5542;48.272;10.794;2022-08-19T03:51:18;95266.75;;;19.41;85.02
10978;BME280;5542;48.272;10.794;2022-08-19T03:53:46;95258.16;;;19.44;85.00
10978;BME280;5542;48.272;10.794;2022-08-19T03:56:13;95252.03;;;19.43;84.97
10978;BME280;5542;48.272;10.794;2022-08-19T03:58:40;95249.84;;;19.45;84.78
10978;BME280;5542;48.272;10.794;2022-08-19T04:01:08;95240.78;;;19.47;84.22
10978;BME280;5542;48.272;10.794;2022-08-19T04:03:35;95235.72;;;19.45;84.29
10978;BME280;5542;48.272;10.794;2022-08-19T04:06:10;95227.16;;;19.48;84.11
10978;BME280;5542;48.272;10.794;2022-08-19T04:08:39;95225.66;;;19.56;83.45
10978;BME280;5542;48.272;10.794;2022-08-19T04:11:07;95219.72;;;19.59;82.55
10978;BME280;5542;48.272;10.794;2022-08-19T04:13:34;95213.31;;;19.46;83.38
10978;BME280;5542;48.272;10.794;2022-08-19T04:16:01;95217.25;;;19.35;83.93
10978;BME280;5542;48.272;10.794;2022-08-19T04:18:28;95206.13;;;19.33;84.69
10978;BME280;5542;48.272;10.794;2022-08-19T04:20:56;95206.69;;;19.16;85.60
10978;BME280;5542;48.272;10.794;2022-08-19T04:23:23;95217.84;;;19.04;85.98
10978;BME280;5542;48.272;10.794;2022-08-19T04:25:51;95214.66;;;19.02;86.63
10978;BME280;5542;48.272;10.794;2022-08-19T04:28:17;95214.88;;;19.06;86.87
10978;BME280;5542;48.272;10.794;2022-08-19T04:30:46;95218.63;;;19.05;86.82
10978;BME280;5542;48.272;10.794;2022-08-19T04:33:15;95224.03;;;19.00;86.93
10978;BME280;5542;48.272;10.794;2022-08-19T04:35:44;95237.63;;;18.98;87.24
10978;BME280;5542;48.272;10.794;2022-08-19T04:38:12;95244.38;;;18.96;87.67
10978;BME280;5542;48.272;10.794;2022-08-19T04:40:40;95258.13;;;18.84;88.44
10978;BME280;5542;48.272;10.794;2022-08-19T04:43:26;95266.25;;;18.92;87.65
10978;BME280;5542;48.272;10.794;2022-08-19T04:45:53;95274.53;;;18.91;87.99
10978;BME280;5542;48.272;10.794;2022-08-19T04:48:20;95273.88;;;18.99;87.54
10978;BME280;5542;48.272;10.794;2022-08-19T04:50:51;95279.03;;;19.09;86.51
10978;BME280;5542;48.272;10.794;2022-08-19T04:53:23;95287.81;;;19.10;86.54
10978;BME280;5542;48.272;10.794;2022-08-19T04:55:50;95286.34;;;19.17;86.21
10978;BME280;5542;48.272;10.794;2022-08-19T04:58:17;95281.63;;;19.14;86.46
10978;BME280;5542;48.272;10.794;2022-08-19T05:00:45;95292.97;;;19.20;86.12
10978;BME280;5542;48.272;10.794;2022-08-19T05:03:12;95294.84;;;19.19;86.11
10978;BME280;5542;48.272;10.794;2022-08-19T05:05:41;95306.09;;;19.16;86.19
10978;BME280;5542;48.272;10.794;2022-08-19T05:08:08;95305.00;;;19.17;86.37
10978;BME280;5542;48.272;10.794;2022-08-19T05:10:35;95308.19;;;19.19;86.36
10978;BME280;5542;48.272;10.794;2022-08-19T05:13:02;95304.44;;;19.21;86.47
10978;BME280;5542;48.272;10.794;2022-08-19T05:15:30;95286.78;;;19.25;86.45
10978;BME280;5542;48.272;10.794;2022-08-19T05:17:58;95293.88;;;19.29;86.15
10978;BME280;5542;48.272;10.794;2022-08-19T05:20:50;95293.59;;;19.31;86.00
10978;BME280;5542;48.272;10.794;2022-08-19T05:23:35;95297.16;;;19.40;85.33
10978;BME280;5542;48.272;10.794;2022-08-19T05:26:02;95291.81;;;19.40;84.48
10978;BME280;5542;48.272;10.794;2022-08-19T05:28:30;95293.22;;;19.37;84.26
10978;BME280;5542;48.272;10.794;2022-08-19T05:30:57;95298.34;;;19.34;84.51
10978;BME280;5542;48.272;10.794;2022-08-19T05:33:25;95298.13;;;19.30;84.90
10978;BME280;5542;48.272;10.794;2022-08-19T05:35:52;95295.78;;;19.29;85.29
10978;BME280;5542;48.272;10.794;2022-08-19T05:38:19;95298.91;;;19.31;85.36
10978;BME280;5542;48.272;10.794;2022-08-19T05:40:46;95302.09;;;19.33;85.54
10978;BME280;5542;48.272;10.794;2022-08-19T05:43:14;95287.69;;;19.34;85.58
10978;BME280;5542;48.272;10.794;2022-08-19T05:45:42;95283.63;;;19.36;85.47
10978;BME280;5542;48.272;10.794;2022-08-19T05:48:09;95282.56;;;19.37;85.17
10978;BME280;5542;48.272;10.794;2022-08-19T05:50:38;95286.50;;;19.40;85.23
10978;BME280;5542;48.272;10.794;2022-08-19T05:53:05;95285.13;;;19.42;85.00
10978;BME280;5542;48.272;10.794;2022-08-19T05:55:32;95287.00;;;19.42;84.94
10978;BME280;5542;48.272;10.794;2022-08-19T05:57:58;95280.78;;;19.47;84.37
10978;BME280;5542;48.272;10.794;2022-08-19T06:00:26;95281.38;;;19.43;84.62
10978;BME280;5542;48.272;10.794;2022-08-19T06:02:55;95283.72;;;19.45;84.28
10978;BME280;5542;48.272;10.794;2022-08-19T06:05:24;95286.69;;;19.43;84.64
10978;BME280;5542;48.272;10.794;2022-08-19T06:07:52;95277.63;;;19.44;85.02
10978;BME280;5542;48.272;10.794;2022-08-19T06:10:19;95281.06;;;19.45;84.68
10978;BME280;5542;48.272;10.794;2022-08-19T06:12:46;95279.97;;;19.46;84.63
10978;BME280;5542;48.272;10.794;2022-08-19T06:15:14;95287.97;;;19.46;84.71
10978;BME280;5542;48.272;10.794;2022-08-19T06:17:42;95284.72;;;19.49;84.19
10978;BME280;5542;48.272;10.794;2022-08-19T06:20:11;95284.53;;;19.45;84.15
10978;BME280;5542;48.272;10.794;2022-08-19T06:22:39;95286.41;;;19.45;84.16
10978;BME280;5542;48.272;10.794;2022-08-19T06:25:08;95295.50;;;19.44;84.27
10978;BME280;5542;48.272;10.794;2022-08-19T06:27:35;95295.50;;;19.44;84.40
10978;BME280;5542;48.272;10.794;2022-08-19T06:30:03;95299.16;;;19.48;84.13
10978;BME280;5542;48.272;10.794;2022-08-19T06:32:30;95298.38;;;19.48;83.66
10978;BME280;5542;48.272;10.794;2022-08-19T06:34:57;95304.38;;;19.39;84.16
10978;BME280;5542;48.272;10.794;2022-08-19T06:37:23;95310.78;;;19.38;84.25
10978;BME280;5542;48.272;10.794;2022-08-19T06:39:50;95302.19;;;19.41;83.90
10978;BME280;5542;48.272;10.794;2022-08-19T06:42:18;95303.88;;;19.37;84.24
10978;BME280;5542;48.272;10.794;2022-08-19T06:44:46;95318.78;;;19.38;84.41
10978;BME280;5542;48.272;10.794;2022-08-19T06:47:16;95318.28;;;19.36;84.57
10978;BME280;5542;48.272;10.794;2022-08-19T06:49:43;95321.69;;;19.42;84.30
10978;BME280;5542;48.272;10.794;2022-08-19T06:52:10;95326.91;;;19.47;83.86
10978;BME280;5542;48.272;10.794;2022-08-19T06:54:38;95328.06;;;19.41;84.67
10978;BME280;5542;48.272;10.794;2022-08-19T06:57:06;95327.00;;;19.42;84.68
10978;BME280;5542;48.272;10.794;2022-08-19T06:59:35;95314.16;;;19.44;84.46
10978;BME280;5542;48.272;10.794;2022-08-19T07:02:04;95316.03;;;19.43;84.47
10978;BME280;5542;48.272;10.794;2022-08-19T07:04:33;95315.25;;;19.43;84.70
10978;BME280;5542;48.272;10.794;2022-08-19T07:07:01;95309.91;;;19.43;84.70
10978;BME280;5542;48.272;10.794;2022-08-19T07:09:28;95304.28;;;19.44;84.70
10978;BME280;5542;48.272;10.794;2022-08-19T07:11:56;95301.13;;;19.42;85.01
10978;BME280;5542;48.272;10.794;2022-08-19T07:14:24;95299.25;;;19.43;85.27
10978;BME280;5542;48.272;10.794;2022-08-19T07:16:54;95298.38;;;19.48;85.31
10978;BME280;5542;48.272;10.794;2022-08-19T07:19:23;95301.81;;;19.48;85.21
10978;BME280;5542;48.272;10.794;2022-08-19T07:21:51;95298.72;;;19.41;85.47
10978;BME280;5542;48.272;10.794;2022-08-19T07:24:20;95300.91;;;19.39;85.74
10978;BME280;5542;48.272;10.794;2022-08-19T07:26:49;95293.41;;;19.41;85.83
10978;BME280;5542;48.272;10.794;2022-08-19T07:29:16;95290.72;;;19.41;85.92
10978;BME280;5542;48.272;10.794;2022-08-19T07:31:43;95289.69;;;19.42;86.25
10978;BME280;5542;48.272;10.794;2022-08-19T07:34:11;95294.41;;;19.45;86.20
10978;BME280;5542;48.272;10.794;2022-08-19T07:36:41;95299.72;;;19.45;86.39
10978;BME280;5542;48.272;10.794;2022-08-19T07:39:14;95300.81;;;19.44;86.42
10978;BME280;5542;48.272;10.794;2022-08-19T07:41:42;95301.13;;;19.42;86.03
10978;BME280;5542;48.272;10.794;2022-08-19T07:44:09;95300.03;;;19.43;86.27
10978;BME280;5542;48.272;10.794;2022-08-19T07:46:40;95300.53;;;19.45;85.98
10978;BME280;5542;48.272;10.794;2022-08-19T07:49:08;95309.44;;;19.55;85.14
10978;BME280;5542;48.272;10.794;2022-08-19T07:51:43;95303.81;;;19.56;85.12
10978;BME280;5542;48.272;10.794;2022-08-19T07:54:10;95310.81;;;19.52;85.49
10978;BME280;5542;48.272;10.794;2022-08-19T07:56:37;95311.81;;;19.56;84.95
10978;BME280;5542;48.272;10.794;2022-08-19T07:59:04;95311.59;;;19.53;85.46
10978;BME280;5542;48.272;10.794;2022-08-19T08:01:32;95300.16;;;19.52;85.65
10978;BME280;5542;48.272;10.794;2022-08-19T08:03:58;95300.47;;;19.64;84.54
10978;BME280;5542;48.272;10.794;2022-08-19T08:06:44;95298.19;;;19.58;84.45
10978;BME280;5542;48.272;10.794;2022-08-19T08:09:30;95301.88;;;19.62;84.21
10978;BME280;5542;48.272;10.794;2022-08-19T08:12:00;95296.28;;;19.58;84.83
10978;BME280;5542;48.272;10.794;2022-08-19T08:14:29;95294.50;;;19.54;85.18
10978;BME280;5542;48.272;10.794;2022-08-19T08:16:57;95294.03;;;19.52;85.67
10978;BME280;5542;48.272;10.794;2022-08-19T08:19:25;95297.06;;;19.45;85.76
10978;BME280;5542;48.272;10.794;2022-08-19T08:21:55;95306.66;;;19.32;86.58
10978;BME280;5542;48.272;10.794;2022-08-19T08:24:22;95306.44;;;19.29;86.86
10978;BME280;5542;48.272;10.794;2022-08-19T08:26:48;95302.47;;;19.26;87.29
10978;BME280;5542;48.272;10.794;2022-08-19T08:29:15;95287.47;;;19.30;87.58
10978;BME280;5542;48.272;10.794;2022-08-19T08:31:43;95286.09;;;19.33;87.26
10978;BME280;5542;48.272;10.794;2022-08-19T08:34:11;95292.00;;;19.30;88.18
10978;BME280;5542;48.272;10.794;2022-08-19T08:36:38;95294.88;;;19.33;88.48
10978;BME280;5542;48.272;10.794;2022-08-19T08:39:08;95292.41;;;19.37;88.20
10978;BME280;5542;48.272;10.794;2022-08-19T08:41:41;95308.69;;;19.35;88.12
10978;BME280;5542;48.272;10.794;2022-08-19T08:44:21;95302.88;;;19.33;88.53
10978;BME280;5542;48.272;10.794;2022-08-19T08:46:50;95303.69;;;19.34;88.45
10978;BME280;5542;48.272;10.794;2022-08-19T08:49:30;95301.59;;;19.31;88.58
10978;BME280;5542;48.272;10.794;2022-08-19T08:52:03;95306.13;;;19.30;88.79
10978;BME280;5542;48.272;10.794;2022-08-19T08:54:35;95309.59;;;19.31;88.57
10978;BME280;5542;48.272;10.794;2022-08-19T08:57:07;95306.34;;;19.34;87.77
10978;BME280;5542;48.272;10.794;2022-08-19T08:59:38;95321.81;;;19.32;87.79
10978;BME280;5542;48.272;10.794;2022-08-19T09:02:06;95322.13;;;19.30;87.87
10978;BME280;5542;48.272;10.794;2022-08-19T09:04:34;95320.91;;;19.23;88.12
10978;BME280;5542;48.272;10.794;2022-08-19T09:07:18;95319.94;;;19.18;88.46
10978;BME280;5542;48.272;10.794;2022-08-19T09:09:51;95325.28;;;19.18;88.44
10978;BME280;5542;48.272;10.794;2022-08-19T09:12:23;95314.09;;;19.16;88.61
10978;BME280;5542;48.272;10.794;2022-08-19T09:14:55;95324.34;;;19.09;89.06
10978;BME280;5542;48.272;10.794;2022-08-19T09:17:28;95331.66;;;19.04;89.63
10978;BME280;5542;48.272;10.794;2022-08-19T09:20:06;95339.34;;;19.05;89.99
10978;BME280;5542;48.272;10.794;2022-08-19T09:22:34;95341.25;;;19.18;88.32
10978;BME280;5542;48.272;10.794;2022-08-19T09:25:03;95336.28;;;19.12;89.03
10978;BME280;5542;48.272;10.794;2022-08-19T09:27:31;95339.97;;;19.16;88.67
10978;BME280;5542;48.272;10.794;2022-08-19T09:29:58;95341.34;;;19.13;89.08
10978;BME280;5542;48.272;10.794;2022-08-19T09:32:25;95341.84;;;19.15;89.03
10978;BME280;5542;48.272;10.794;2022-08-19T09:34:53;95344.72;;;19.19;88.70
10978;BME280;5542;48.272;10.794;2022-08-19T09:37:20;95348.16;;;19.19;88.78
10978;BME280;5542;48.272;10.794;2022-08-19T09:39:46;95350.06;;;19.19;88.91
10978;BME280;5542;48.272;10.794;2022-08-19T09:42:14;95349.25;;;19.18;89.07
10978;BME280;5542;48.272;10.794;2022-08-19T09:44:41;95356.66;;;19.22;89.11
10978;BME280;5542;48.272;10.794;2022-08-19T09:47:09;95355.09;;;19.21;89.45
10978;BME280;5542;48.272;10.794;2022-08-19T09:49:37;95349.25;;;19.18;89.57
10978;BME280;5542;48.272;10.794;2022-08-19T09:52:04;95359.91;;;19.18;89.67
10978;BME280;5542;48.272;10.794;2022-08-19T09:54:33;95355.88;;;19.21;89.41
10978;BME280;5542;48.272;10.794;2022-08-19T09:57:00;95353.63;;;19.28;87.92
10978;BME280;5542;48.272;10.794;2022-08-19T09:59:28;95360.91;;;19.23;88.57
10978;BME280;5542;48.272;10.794;2022-08-19T10:01:55;95360.09;;;19.22;88.42
10978;BME280;5542;48.272;10.794;2022-08-19T10:04:22;95367.25;;;19.27;88.02
10978;BME280;5542;48.272;10.794;2022-08-19T10:07:09;95360.31;;;19.26;87.97
10978;BME280;5542;48.272;10.794;2022-08-19T10:09:36;95361.72;;;19.23;88.01
10978;BME280;5542;48.272;10.794;2022-08-19T10:12:04;95362.59;;;19.18;88.48
10978;BME280;5542;48.272;10.794;2022-08-19T10:14:32;95372.94;;;19.20;88.73
10978;BME280;5542;48.272;10.794;2022-08-19T10:17:00;95359.91;;;19.18;89.16
10978;BME280;5542;48.272;10.794;2022-08-19T10:19:27;95368.97;;;19.17;88.93
10978;BME280;5542;48.272;10.794;2022-08-19T10:21:55;95368.19;;;19.17;88.85
10978;BME280;5542;48.272;10.794;2022-08-19T10:24:22;95368.00;;;19.13;88.95
10978;BME280;5542;48.272;10.794;2022-08-19T10:26:51;95368.78;;;19.14;88.87
10978;BME280;5542;48.272;10.794;2022-08-19T10:29:18;95373.97;;;19.05;89.40
10978;BME280;5542;48.272;10.794;2022-08-19T10:31:45;95370.59;;;19.00;90.20
10978;BME280;5542;48.272;10.794;2022-08-19T10:34:13;95373.84;;;18.97;90.24
10978;BME280;5542;48.272;10.794;2022-08-19T10:36:40;95367.88;;;18.86;91.05
10978;BME280;5542;48.272;10.794;2022-08-19T10:39:08;95371.97;;;18.78;91.78
10978;BME280;5542;48.272;10.794;2022-08-19T10:41:38;95370.09;;;18.79;91.65
10978;BME280;5542;48.272;10.794;2022-08-19T10:44:07;95373.63;;;18.74;92.10
10978;BME280;5542;48.272;10.794;2022-08-19T10:46:37;95373.75;;;18.64;92.51
10978;BME280;5542;48.272;10.794;2022-08-19T10:49:09;95372.53;;;18.56;93.35
10978;BME280;5542;48.272;10.794;2022-08-19T10:51:37;95379.69;;;18.56;93.93
10978;BME280;5542;48.272;10.794;2022-08-19T10:54:22;95390.72;;;18.49;94.28
10978;BME280;5542;48.272;10.794;2022-08-19T10:56:48;95391.28;;;18.46;95.04
10978;BME280;5542;48.272;10.794;2022-08-19T10:59:18;95399.16;;;18.56;94.58
10978;BME280;5542;48.272;10.794;2022-08-19T11:01:46;95402.81;;;18.60;94.60
10978;BME280;5542;48.272;10.794;2022-08-19T11:04:14;95388.16;;;18.63;94.42
10978;BME280;5542;48.272;10.794;2022-08-19T11:06:43;95384.09;;;18.71;93.35
10978;BME280;5542;48.272;10.794;2022-08-19T11:09:13;95388.06;;;18.68;92.79
10978;BME280;5542;48.272;10.794;2022-08-19T11:11:40;95382.22;;;18.71;91.40
10978;BME280;5542;48.272;10.794;2022-08-19T11:14:07;95386.28;;;18.63;91.46
10978;BME280;5542;48.272;10.794;2022-08-19T11:16:35;95389.41;;;18.71;90.96
10978;BME280;5542;48.272;10.794;2022-08-19T11:19:05;95389.16;;;18.67;91.20
10978;BME280;5542;48.272;10.794;2022-08-19T11:21:36;95382.47;;;18.70;91.42
10978;BME280;5542;48.272;10.794;2022-08-19T11:24:06;95371.31;;;18.67;91.47
10978;BME280;5542;48.272;10.794;2022-08-19T11:26:34;95363.75;;;18.75;91.38
10978;BME280;5542;48.272;10.794;2022-08-19T11:29:03;95354.41;;;18.77;90.92
10978;BME280;5542;48.272;10.794;2022-08-19T11:31:32;95331.06;;;18.88;89.69
10978;BME280;5542;48.272;10.794;2022-08-19T11:34:03;95333.09;;;18.77;90.32
10978;BME280;5542;48.272;10.794;2022-08-19T11:36:31;95341.41;;;18.76;90.51
10978;BME280;5542;48.272;10.794;2022-08-19T11:38:59;95359.88;;;18.67;90.98
10978;BME280;5542;48.272;10.794;2022-08-19T11:41:27;95371.03;;;18.69;91.07
10978;BME280;5542;48.272;10.794;2022-08-19T11:43:54;95366.50;;;18.70;91.55
10978;BME280;5542;48.272;10.794;2022-08-19T11:46:22;95357.22;;;18.86;89.32
10978;BME280;5542;48.272;10.794;2022-08-19T11:48:49;95362.41;;;18.77;89.71
10978;BME280;5542;48.272;10.794;2022-08-19T11:51:19;95369.09;;;18.75;89.97
10978;BME280;5542;48.272;10.794;2022-08-19T11:53:46;95370.41;;;18.77;89.93
10978;BME280;5542;48.272;10.794;2022-08-19T11:56:15;95368.59;;;18.73;90.61
10978;BME280;5542;48.272;10.794;2022-08-19T11:58:41;95364.91;;;18.68;91.19
10978;BME280;5542;48.272;10.794;2022-08-19T12:01:09;95356.84;;;18.74;91.36
10978;BME280;5542;48.272;10.794;2022-08-19T12:03:36;95349.09;;;18.77;90.12
10978;BME280;5542;48.272;10.794;2022-08-19T12:06:04;95354.03;;;18.84;90.03
10978;BME280;5542;48.272;10.794;2022-08-19T12:08:31;95349.22;;;18.86;88.77
10978;BME280;5542;48.272;10.794;2022-08-19T12:10:58;95359.97;;;18.81;89.54
10978;BME280;5542;48.272;10.794;2022-08-19T12:13:28;95363.69;;;18.80;89.14
10978;BME280;5542;48.272;10.794;2022-08-19T12:15:55;95359.75;;;18.77;89.86
10978;BME280;5542;48.272;10.794;2022-08-19T12:18:23;95361.69;;;18.72;90.69
10978;BME280;5542;48.272;10.794;2022-08-19T12:20:51;95369.69;;;18.72;90.92
10978;BME280;5542;48.272;10.794;2022-08-19T12:23:19;95368.31;;;18.74;90.58
10978;BME280;5542;48.272;10.794;2022-08-19T12:25:48;95371.56;;;18.71;90.93
10978;BME280;5542;48.272;10.794;2022-08-19T12:28:17;95363.69;;;18.80;90.45
10978;BME280;5542;48.272;10.794;2022-08-19T12:30:45;95371.19;;;18.78;90.94
10978;BME280;5542;48.272;10.794;2022-08-19T12:33:11;95363.81;;;18.88;90.78
10978;BME280;5542;48.272;10.794;2022-08-19T12:35:39;95368.88;;;18.90;90.07
10978;BME280;5542;48.272;10.794;2022-08-19T12:38:06;95374.50;;;18.88;89.96
10978;BME280;5542;48.272;10.794;2022-08-19T12:40:33;95376.44;;;18.83;91.34
10978;BME280;5542;48.272;10.794;2022-08-19T12:42:59;95381.47;;;18.84;92.04
10978;BME280;5542;48.272;10.794;2022-08-19T12:45:26;95382.84;;;19.01;90.08
10978;BME280;5542;48.272;10.794;2022-08-19T12:47:54;95379.63;;;19.04;90.54
10978;BME280;5542;48.272;10.794;2022-08-19T12:50:21;95385.50;;;19.01;91.43
10978;BME280;5542;48.272;10.794;2022-08-19T12:52:48;95390.97;;;19.09;90.06
10978;BME280;5542;48.272;10.794;2022-08-19T12:55:15;95388.50;;;19.13;90.63
10978;BME280;5542;48.272;10.794;2022-08-19T12:57:44;95389.91;;;19.10;91.82
10978;BME280;5542;48.272;10.794;2022-08-19T13:00:14;95396.28;;;19.28;91.23
10978;BME280;5542;48.272;10.794;2022-08-19T13:02:43;95401.09;;;19.26;91.17
10978;BME280;5542;48.272;10.794;2022-08-19T13:05:13;95402.81;;;19.36;90.28
10978;BME280;5542;48.272;10.794;2022-08-19T13:07:41;95409.69;;;19.42;91.21